createdAt,value
2022-11-18T00:01:35.483Z,11.90
2022-11-18T00:04:02.428Z,11.90
2022-11-18T00:06:29.948Z,11.90
2022-11-18T00:08:58.850Z,11.90
2022-11-18T00:11:45.299Z,11.90
2022-11-18T00:14:20.807Z,11.80
2022-11-18T00:16:51.398Z,11.80
2022-11-18T00:19:22.436Z,11.80
2022-11-18T00:21:50.163Z,11.80
2022-11-18T00:24:16.995Z,11.80
2022-11-18T00:26:43.766Z,11.70
2022-11-18T00:29:10.986Z,11.70
2022-11-18T00:31:38.228Z,11.80
2022-11-18T00:34:05.714Z,11.70
2022-11-18T00:36:32.373Z,11.70
2022-11-18T00:38:59.091Z,11.90
2022-11-18T00:41:45.710Z,11.70
2022-11-18T00:44:12.368Z,11.70
2022-11-18T00:46:38.982Z,11.70
2022-11-18T00:49:05.700Z,11.70
2022-11-18T00:51:32.318Z,11.70
2022-11-18T00:53:58.970Z,11.70
2022-11-18T00:56:25.595Z,11.70
2022-11-18T00:58:52.265Z,11.70
2022-11-18T01:01:18.912Z,11.60
2022-11-18T01:03:46.275Z,11.70
2022-11-18T01:06:12.903Z,11.70
2022-11-18T01:08:39.508Z,11.60
2022-11-18T01:11:25.721Z,11.60
2022-11-18T01:13:53.126Z,11.60
2022-11-18T01:16:21.565Z,11.60
2022-11-18T01:18:48.571Z,11.60
2022-11-18T01:21:15.264Z,11.60
2022-11-18T01:23:41.934Z,11.60
2022-11-18T01:26:12.107Z,11.70
2022-11-18T01:28:39.031Z,11.70
2022-11-18T01:31:07.658Z,11.70
2022-11-18T01:33:34.386Z,11.60
2022-11-18T01:36:01.100Z,11.60
2022-11-18T01:38:28.468Z,11.70
2022-11-18T01:40:56.000Z,11.70
2022-11-18T01:43:23.625Z,11.70
2022-11-18T01:45:53.777Z,11.70
2022-11-18T01:48:31.755Z,11.70
2022-11-18T01:51:04.533Z,11.70
2022-11-18T01:53:38.255Z,11.70
2022-11-18T01:56:12.144Z,11.70
2022-11-18T01:58:49.697Z,11.70
2022-11-18T02:01:16.469Z,11.70
2022-11-18T02:03:44.951Z,11.60
2022-11-18T02:06:11.756Z,11.50
2022-11-18T02:08:40.123Z,11.50
2022-11-18T02:11:30.899Z,11.50
2022-11-18T02:13:59.315Z,11.40
2022-11-18T02:16:39.950Z,11.30
2022-11-18T02:19:38.861Z,11.30
2022-11-18T02:22:36.631Z,11.30
2022-11-18T02:25:37.570Z,11.20
2022-11-18T02:28:37.120Z,11.20
2022-11-18T02:31:30.422Z,11.10
2022-11-18T02:34:03.768Z,11.10
2022-11-18T02:36:45.554Z,11.00
2022-11-18T02:39:20.689Z,11.00
2022-11-18T02:41:49.255Z,11.00
2022-11-18T02:44:17.581Z,11.00
2022-11-18T02:46:48.299Z,10.90
2022-11-18T02:49:24.280Z,10.90
2022-11-18T02:51:52.381Z,10.90
2022-11-18T02:54:20.266Z,10.90
2022-11-18T02:56:48.751Z,10.80
2022-11-18T02:59:19.322Z,10.80
2022-11-18T03:01:46.623Z,10.80
2022-11-18T03:04:15.573Z,10.80
2022-11-18T03:06:49.321Z,10.80
2022-11-18T03:09:27.441Z,10.80
2022-11-18T03:12:15.728Z,10.80
2022-11-18T03:14:52.460Z,10.70
2022-11-18T03:17:25.841Z,10.70
2022-11-18T03:20:04.536Z,10.70
2022-11-18T03:22:45.692Z,10.70
2022-11-18T03:25:36.625Z,10.70
2022-11-18T03:28:17.203Z,10.70
2022-11-18T03:30:55.009Z,10.70
2022-11-18T03:33:28.635Z,10.70
2022-11-18T03:35:57.450Z,10.60
2022-11-18T03:38:30.517Z,10.60
2022-11-18T03:41:01.488Z,10.60
2022-11-18T03:43:35.139Z,10.60
2022-11-18T03:46:17.143Z,10.60
2022-11-18T03:48:55.143Z,10.60
2022-11-18T03:51:50.047Z,10.60
2022-11-18T03:54:24.440Z,10.50
2022-11-18T03:57:02.449Z,10.60
2022-11-18T04:02:24.769Z,10.50
2022-11-18T04:04:54.560Z,10.50
2022-11-18T04:07:33.118Z,10.50
2022-11-18T04:10:03.633Z,10.50
2022-11-18T04:12:35.290Z,10.50
2022-11-18T04:15:02.065Z,10.50
2022-11-18T04:17:29.058Z,10.50
2022-11-18T04:19:56.226Z,10.50
2022-11-18T04:22:23.166Z,10.50
2022-11-18T04:24:49.850Z,10.50
2022-11-18T04:27:16.546Z,10.50
2022-11-18T04:29:43.183Z,10.50
2022-11-18T04:32:09.837Z,10.50
2022-11-18T04:34:36.492Z,10.40
2022-11-18T04:37:03.340Z,10.40
2022-11-18T04:39:30.058Z,10.40
2022-11-18T04:41:56.820Z,10.40
2022-11-18T04:44:29.173Z,10.40
2022-11-18T04:46:57.402Z,10.40
2022-11-18T04:49:25.208Z,10.40
2022-11-18T04:51:52.792Z,10.40
2022-11-18T04:54:19.541Z,10.30
2022-11-18T04:56:49.353Z,10.30
2022-11-18T04:59:19.605Z,10.30
2022-11-18T05:01:47.164Z,10.30
2022-11-18T05:04:16.277Z,10.30
2022-11-18T05:06:43.159Z,10.30
2022-11-18T05:09:10.358Z,10.30
2022-11-18T05:11:55.810Z,10.30
2022-11-18T05:14:24.853Z,10.30
2022-11-18T05:16:51.468Z,10.30
2022-11-18T05:19:18.363Z,10.30
2022-11-18T05:21:45.238Z,10.30
2022-11-18T05:24:12.024Z,10.30
2022-11-18T05:26:38.704Z,10.30
2022-11-18T05:29:05.399Z,10.30
2022-11-18T05:31:32.151Z,10.30
2022-11-18T05:33:58.977Z,10.30
2022-11-18T05:36:26.180Z,10.30
2022-11-18T05:38:52.796Z,10.40
2022-11-18T05:41:38.144Z,10.40
2022-11-18T05:44:05.132Z,10.40
2022-11-18T05:46:32.320Z,10.40
2022-11-18T05:48:59.009Z,10.40
2022-11-18T05:51:25.922Z,10.40
2022-11-18T05:53:54.488Z,10.40
2022-11-18T05:56:27.079Z,10.40
2022-11-18T05:58:53.744Z,10.40
2022-11-18T06:01:29.684Z,10.40
2022-11-18T06:03:57.323Z,10.40
2022-11-18T06:06:24.677Z,10.50
2022-11-18T06:08:54.368Z,10.50
2022-11-18T06:11:21.704Z,10.50
2022-11-18T06:13:57.316Z,10.50
2022-11-18T06:16:28.462Z,10.50
2022-11-18T06:18:55.335Z,10.50
2022-11-18T06:21:22.421Z,10.50
2022-11-18T06:23:49.357Z,10.50
2022-11-18T06:26:16.915Z,10.50
2022-11-18T06:28:46.674Z,10.50
2022-11-18T06:31:13.363Z,10.50
2022-11-18T06:33:40.007Z,10.50
2022-11-18T06:36:07.009Z,10.50
2022-11-18T06:38:33.673Z,10.50
2022-11-18T06:41:01.352Z,10.50
2022-11-18T06:43:41.610Z,10.50
2022-11-18T06:46:33.753Z,10.50
2022-11-18T06:49:01.644Z,10.50
2022-11-18T06:51:28.803Z,10.50
2022-11-18T06:53:55.549Z,10.50
2022-11-18T06:56:23.066Z,10.50
2022-11-18T06:58:53.948Z,10.50
2022-11-18T07:01:22.977Z,10.50
2022-11-18T07:03:49.838Z,10.50
2022-11-18T07:06:18.866Z,10.50
2022-11-18T07:08:45.628Z,10.50
2022-11-18T07:11:15.889Z,10.50
2022-11-18T07:13:44.015Z,10.50
2022-11-18T07:16:19.620Z,10.50
2022-11-18T07:18:48.088Z,10.50
2022-11-18T07:21:19.490Z,10.50
2022-11-18T07:23:46.588Z,10.40
2022-11-18T07:26:13.839Z,10.50
2022-11-18T07:28:41.195Z,10.50
2022-11-18T07:31:10.456Z,10.50
2022-11-18T07:33:38.283Z,10.40
2022-11-18T07:36:09.713Z,10.40
2022-11-18T07:38:36.613Z,10.40
2022-11-18T07:41:14.276Z,10.40
2022-11-18T07:43:41.599Z,10.40
2022-11-18T07:46:10.493Z,10.40
2022-11-18T07:48:37.430Z,10.40
2022-11-18T07:51:04.280Z,10.50
2022-11-18T07:53:31.896Z,10.50
2022-11-18T07:55:58.655Z,10.50
2022-11-18T07:58:25.325Z,10.40
2022-11-18T08:00:51.998Z,10.50
2022-11-18T08:03:18.681Z,10.50
2022-11-18T08:05:45.408Z,10.50
2022-11-18T08:08:12.117Z,10.50
2022-11-18T08:10:38.788Z,10.50
2022-11-18T08:13:05.373Z,10.50
2022-11-18T08:15:32.025Z,10.50
2022-11-18T08:17:58.671Z,10.50
2022-11-18T08:20:27.153Z,10.50
2022-11-18T08:22:53.797Z,10.50
2022-11-18T08:25:20.435Z,10.50
2022-11-18T08:27:47.130Z,10.50
2022-11-18T08:30:13.980Z,10.50
2022-11-18T08:32:40.565Z,10.50
2022-11-18T08:35:10.999Z,10.50
2022-11-18T08:37:38.352Z,10.50
2022-11-18T08:40:05.634Z,10.50
2022-11-18T08:42:34.413Z,10.50
2022-11-18T08:45:01.424Z,10.50
2022-11-18T08:47:28.056Z,10.50
2022-11-18T08:49:54.714Z,10.50
2022-11-18T08:52:21.366Z,10.50
2022-11-18T08:54:47.987Z,10.50
2022-11-18T08:57:14.613Z,10.60
2022-11-18T08:59:41.309Z,10.60
2022-11-18T09:02:14.879Z,10.50
2022-11-18T09:04:41.671Z,10.60
2022-11-18T09:07:08.458Z,10.60
2022-11-18T09:09:35.486Z,10.50
2022-11-18T09:12:02.224Z,10.60
2022-11-18T09:17:15.696Z,10.50
2022-11-18T09:19:49.529Z,10.60
2022-11-18T09:22:16.364Z,10.60
2022-11-18T09:24:43.465Z,10.60
2022-11-18T09:27:16.439Z,10.70
2022-11-18T09:29:43.595Z,10.70
2022-11-18T09:32:10.287Z,10.70
2022-11-18T09:34:37.041Z,10.70
2022-11-18T09:37:06.366Z,10.70
2022-11-18T09:39:37.175Z,10.70
2022-11-18T09:42:25.267Z,10.70
2022-11-18T09:45:24.342Z,10.70
2022-11-18T09:47:51.907Z,10.80
2022-11-18T09:53:19.376Z,10.80
2022-11-18T09:55:47.506Z,10.80
2022-11-18T09:58:22.338Z,10.80
2022-11-18T10:00:49.130Z,10.80
2022-11-18T10:03:29.342Z,10.80
2022-11-18T10:06:03.588Z,10.80
2022-11-18T10:08:40.192Z,10.80
2022-11-18T10:11:07.741Z,10.80
2022-11-18T10:13:45.161Z,10.80
2022-11-18T10:16:37.203Z,10.80
2022-11-18T10:19:44.644Z,10.80
2022-11-18T10:22:33.830Z,10.90
2022-11-18T10:25:01.143Z,10.90
2022-11-18T10:27:38.751Z,10.90
2022-11-18T10:30:19.703Z,10.90
2022-11-18T10:33:04.476Z,10.90
2022-11-18T10:35:38.183Z,10.90
2022-11-18T10:38:22.934Z,10.90
2022-11-18T10:40:52.830Z,10.90
2022-11-18T10:43:51.900Z,11.00
2022-11-18T10:46:39.116Z,11.00
2022-11-18T10:49:08.994Z,11.00
2022-11-18T10:52:04.404Z,11.00
2022-11-18T10:54:31.233Z,11.10
2022-11-18T10:57:13.417Z,11.00
2022-11-18T10:59:51.972Z,11.10
2022-11-18T11:02:31.099Z,11.10
2022-11-18T11:05:01.449Z,11.10
2022-11-18T11:07:32.388Z,11.10
2022-11-18T11:10:06.962Z,11.10
2022-11-18T11:12:35.976Z,11.10
2022-11-18T11:15:16.501Z,11.20
2022-11-18T11:18:10.363Z,11.20
2022-11-18T11:20:37.017Z,11.20
2022-11-18T11:23:12.679Z,11.30
2022-11-18T11:28:51.337Z,11.30
2022-11-18T11:31:23.880Z,11.30
2022-11-18T11:34:08.733Z,11.40
2022-11-18T11:36:59.066Z,11.40
2022-11-18T11:39:40.868Z,11.40
2022-11-18T11:42:23.663Z,11.40
2022-11-18T11:45:17.642Z,11.40
2022-11-18T11:48:13.236Z,11.40
2022-11-18T11:51:03.332Z,11.40
2022-11-18T11:53:41.584Z,11.40
2022-11-18T11:56:39.195Z,11.50
2022-11-18T11:59:14.860Z,11.50
2022-11-18T12:01:47.352Z,11.50
2022-11-18T12:04:41.661Z,11.50
2022-11-18T12:07:16.779Z,11.50
2022-11-18T12:10:08.004Z,11.50
2022-11-18T12:12:48.756Z,11.50
2022-11-18T12:15:40.458Z,11.50
2022-11-18T12:18:24.864Z,11.50
2022-11-18T12:20:53.855Z,11.50
2022-11-18T12:23:26.630Z,11.50
2022-11-18T12:25:56.585Z,11.50
2022-11-18T12:28:36.187Z,11.50
2022-11-18T12:31:18.151Z,11.50
2022-11-18T12:33:56.389Z,11.50
2022-11-18T12:36:35.134Z,11.50
2022-11-18T12:39:23.895Z,11.50
2022-11-18T12:42:09.016Z,11.50
2022-11-18T12:44:37.232Z,11.50
2022-11-18T12:47:11.051Z,11.50
2022-11-18T12:49:37.650Z,11.40
2022-11-18T12:52:47.270Z,11.40
2022-11-18T12:55:18.789Z,11.40
2022-11-18T12:57:45.557Z,11.40
2022-11-18T13:00:24.128Z,11.40
2022-11-18T13:02:55.548Z,11.40
2022-11-18T13:05:30.835Z,11.30
2022-11-18T13:08:13.607Z,11.30
2022-11-18T13:10:43.202Z,11.30
2022-11-18T13:13:30.273Z,11.30
2022-11-18T13:16:38.331Z,11.30
2022-11-18T13:19:05.617Z,11.20
2022-11-18T13:21:50.772Z,11.20
2022-11-18T13:24:20.902Z,11.20
2022-11-18T13:26:53.148Z,11.10
2022-11-18T13:29:33.027Z,11.10
2022-11-18T13:32:21.012Z,11.00
2022-11-18T13:34:56.468Z,11.00
2022-11-18T13:37:28.546Z,11.00
2022-11-18T13:39:55.651Z,11.00
2022-11-18T13:42:26.015Z,10.90
2022-11-18T13:45:01.032Z,10.90
2022-11-18T13:47:40.096Z,10.90
2022-11-18T13:50:31.344Z,10.80
2022-11-18T13:53:44.445Z,10.80
2022-11-18T13:56:34.422Z,10.80
2022-11-18T13:59:16.738Z,10.80
2022-11-18T14:01:44.767Z,10.80
2022-11-18T14:04:27.419Z,10.70
2022-11-18T14:07:14.306Z,10.70
2022-11-18T14:09:56.766Z,10.70
2022-11-18T14:12:25.952Z,10.60
2022-11-18T14:14:52.607Z,10.60
2022-11-18T14:17:27.955Z,10.50
2022-11-18T14:19:57.588Z,10.50
2022-11-18T14:22:31.885Z,10.40
2022-11-18T14:25:15.370Z,10.40
2022-11-18T14:27:55.653Z,10.30
2022-11-18T14:30:41.617Z,10.30
2022-11-18T14:33:20.313Z,10.20
2022-11-18T14:36:10.437Z,10.20
2022-11-18T14:39:04.479Z,10.10
2022-11-18T14:41:46.880Z,10.10
2022-11-18T14:44:13.987Z,10.00
2022-11-18T14:46:43.327Z,10.00
2022-11-18T14:49:19.245Z,9.90
2022-11-18T14:51:46.829Z,9.90
2022-11-18T14:54:17.260Z,9.90
2022-11-18T14:56:49.300Z,9.80
2022-11-18T14:59:17.943Z,9.80
2022-11-18T15:01:45.263Z,9.80
2022-11-18T15:04:14.188Z,9.70
2022-11-18T15:06:40.845Z,9.70
2022-11-18T15:09:08.044Z,9.70
2022-11-18T15:11:35.199Z,9.60
2022-11-18T15:14:02.738Z,9.60
2022-11-18T15:16:32.258Z,9.50
2022-11-18T15:19:01.693Z,9.50
2022-11-18T15:21:28.325Z,9.50
2022-11-18T15:23:55.054Z,9.40
2022-11-18T15:26:29.808Z,9.40
2022-11-18T15:28:57.716Z,9.30
2022-11-18T15:31:25.625Z,9.30
2022-11-18T15:33:52.703Z,9.30
2022-11-18T15:36:21.691Z,9.30
2022-11-18T15:38:49.101Z,9.20
2022-11-18T15:41:25.180Z,9.20
2022-11-18T15:43:53.486Z,9.10
2022-11-18T15:46:22.535Z,9.10
2022-11-18T15:48:52.453Z,9.10
2022-11-18T15:51:19.405Z,9.10
2022-11-18T15:53:46.046Z,9.00
2022-11-18T15:56:28.980Z,9.00
2022-11-18T15:58:59.615Z,9.00
2022-11-18T16:01:28.836Z,8.90
2022-11-18T16:03:55.700Z,8.90
2022-11-18T16:06:23.044Z,8.90
2022-11-18T16:08:53.213Z,8.80
2022-11-18T16:11:41.078Z,8.80
2022-11-18T16:14:10.535Z,8.80
2022-11-18T16:16:38.635Z,8.80
2022-11-18T16:19:07.884Z,8.70
2022-11-18T16:21:37.241Z,8.70
2022-11-18T16:24:05.990Z,8.60
2022-11-18T16:26:33.515Z,8.60
2022-11-18T16:29:01.014Z,8.50
2022-11-18T16:31:39.983Z,8.50
2022-11-18T16:34:14.186Z,8.50
2022-11-18T16:36:42.925Z,8.40
2022-11-18T16:39:13.784Z,8.40
2022-11-18T16:41:41.732Z,8.40
2022-11-18T16:44:11.020Z,8.30
2022-11-18T16:46:40.480Z,8.30
2022-11-18T16:49:10.733Z,8.30
2022-11-18T16:51:37.362Z,8.30
2022-11-18T16:54:07.004Z,8.30
2022-11-18T16:56:35.535Z,8.30
2022-11-18T16:59:10.764Z,8.30
2022-11-18T17:01:37.609Z,8.30
2022-11-18T17:04:04.431Z,8.30
2022-11-18T17:06:31.763Z,8.30
2022-11-18T17:09:00.427Z,8.20
2022-11-18T17:11:27.526Z,8.20
2022-11-18T17:13:58.011Z,8.20
2022-11-18T17:16:25.981Z,8.20
2022-11-18T17:18:56.967Z,8.10
2022-11-18T17:21:24.763Z,8.10
2022-11-18T17:23:51.611Z,8.10
2022-11-18T17:26:21.379Z,8.00
2022-11-18T17:28:48.344Z,8.00
2022-11-18T17:31:18.191Z,7.90
2022-11-18T17:33:45.338Z,7.90
2022-11-18T17:36:14.474Z,7.80
2022-11-18T17:38:43.276Z,7.80
2022-11-18T17:41:31.556Z,7.70
2022-11-18T17:43:58.611Z,7.70
2022-11-18T17:46:25.446Z,7.60
2022-11-18T17:48:56.596Z,7.60
2022-11-18T17:51:24.634Z,7.50
2022-11-18T17:53:52.295Z,7.50
2022-11-18T17:56:20.021Z,7.40
2022-11-18T17:58:49.237Z,7.40
2022-11-18T18:01:17.730Z,7.40
2022-11-18T18:03:44.953Z,7.30
2022-11-18T18:06:12.572Z,7.30
2022-11-18T18:08:39.450Z,7.30
2022-11-18T18:11:12.660Z,7.20
2022-11-18T18:13:58.970Z,7.20
2022-11-18T18:16:26.404Z,7.20
2022-11-18T18:18:53.291Z,7.20
2022-11-18T18:21:20.262Z,7.10
2022-11-18T18:23:47.102Z,7.10
2022-11-18T18:26:13.853Z,7.10
2022-11-18T18:28:40.558Z,7.10
2022-11-18T18:31:09.449Z,7.00
2022-11-18T18:33:37.184Z,7.00
2022-11-18T18:36:06.167Z,6.90
2022-11-18T18:38:34.537Z,6.90
2022-11-18T18:41:03.255Z,6.90
2022-11-18T18:43:29.922Z,6.90
2022-11-18T18:46:19.129Z,6.80
2022-11-18T18:48:45.967Z,6.80
2022-11-18T18:51:12.976Z,6.80
2022-11-18T18:53:39.851Z,6.70
2022-11-18T18:56:06.955Z,6.70
2022-11-18T18:58:33.965Z,6.70
2022-11-18T19:01:11.027Z,6.70
2022-11-18T19:03:38.470Z,6.60
2022-11-18T19:09:11.191Z,6.60
2022-11-18T19:11:56.922Z,6.50
2022-11-18T19:14:24.661Z,6.50
2022-11-18T19:16:52.264Z,6.50
2022-11-18T19:19:43.322Z,6.50
2022-11-18T19:22:11.787Z,6.40
2022-11-18T19:24:54.693Z,6.40
2022-11-18T19:27:21.833Z,6.40
2022-11-18T19:29:48.550Z,6.40
2022-11-18T19:32:15.582Z,6.30
2022-11-18T19:34:42.225Z,6.40
2022-11-18T19:37:08.999Z,6.30
2022-11-18T19:39:35.675Z,6.20
2022-11-18T19:42:02.339Z,6.20
2022-11-18T19:44:29.129Z,6.20
2022-11-18T19:46:55.804Z,6.10
2022-11-18T19:49:22.911Z,6.10
2022-11-18T19:51:49.687Z,6.10
2022-11-18T19:54:16.403Z,6.10
2022-11-18T19:56:43.169Z,6.10
2022-11-18T19:59:12.359Z,6.00
2022-11-18T20:01:39.611Z,6.00
2022-11-18T20:04:06.411Z,6.00
2022-11-18T20:06:35.389Z,6.00
2022-11-18T20:09:03.169Z,5.90
2022-11-18T20:11:29.828Z,5.90
2022-11-18T20:13:56.557Z,5.90
2022-11-18T20:16:25.125Z,5.90
2022-11-18T20:19:01.993Z,5.80
2022-11-18T20:21:31.135Z,5.80
2022-11-18T20:24:02.995Z,5.80
2022-11-18T20:26:34.950Z,5.80
2022-11-18T20:29:01.702Z,5.70
2022-11-18T20:31:29.275Z,5.70
2022-11-18T20:33:57.000Z,5.70
2022-11-18T20:36:31.698Z,5.70
2022-11-18T20:39:00.708Z,5.70
2022-11-18T20:41:30.207Z,5.60
2022-11-18T20:43:56.903Z,5.60
2022-11-18T20:46:23.562Z,5.60
2022-11-18T20:48:50.435Z,5.60
2022-11-18T20:51:18.664Z,5.60
2022-11-18T20:53:45.487Z,5.60
2022-11-18T20:56:40.395Z,5.50
2022-11-18T20:59:07.025Z,5.50
2022-11-18T21:01:33.850Z,5.50
2022-11-18T21:04:01.589Z,5.50
2022-11-18T21:06:29.995Z,5.40
2022-11-18T21:08:59.352Z,5.40
2022-11-18T21:11:26.673Z,5.40
2022-11-18T21:14:12.335Z,5.40
2022-11-18T21:16:41.105Z,5.40
2022-11-18T21:19:08.051Z,5.40
2022-11-18T21:21:48.947Z,5.40
2022-11-18T21:24:18.435Z,5.40
2022-11-18T21:26:47.116Z,5.30
2022-11-18T21:29:15.741Z,5.30
2022-11-18T21:31:43.897Z,5.30
2022-11-18T21:34:11.330Z,5.30
2022-11-18T21:36:44.319Z,5.30
2022-11-18T21:39:13.963Z,5.30
2022-11-18T21:41:40.960Z,5.30
2022-11-18T21:44:10.104Z,5.30
2022-11-18T21:46:38.827Z,5.30
2022-11-18T21:49:06.084Z,5.30
2022-11-18T21:51:33.769Z,5.30
2022-11-18T21:54:01.154Z,5.30
2022-11-18T21:56:30.623Z,5.30
2022-11-18T21:58:59.171Z,5.30
2022-11-18T22:01:31.238Z,5.30
2022-11-18T22:04:00.869Z,5.30
2022-11-18T22:06:33.243Z,5.30
2022-11-18T22:09:01.339Z,5.30
2022-11-18T22:11:28.378Z,5.30
2022-11-18T22:13:55.586Z,5.30
2022-11-18T22:16:24.559Z,5.30
2022-11-18T22:18:58.152Z,5.30
2022-11-18T22:21:26.981Z,5.30
2022-11-18T22:23:58.287Z,5.30
2022-11-18T22:26:25.050Z,5.30
2022-11-18T22:28:57.012Z,5.30
2022-11-18T22:31:25.727Z,5.30
2022-11-18T22:33:52.864Z,5.30
2022-11-18T22:36:21.560Z,5.40
2022-11-18T22:38:48.825Z,5.30
2022-11-18T22:41:43.507Z,5.30
2022-11-18T22:44:11.652Z,5.30
2022-11-18T22:46:39.504Z,5.30
2022-11-18T22:49:07.543Z,5.30
2022-11-18T22:51:34.793Z,5.30
2022-11-18T22:54:37.794Z,5.30
2022-11-18T22:56:48.134Z,5.30
2022-11-18T22:59:14.763Z,5.30
2022-11-18T23:01:41.467Z,5.20
2022-11-18T23:04:08.179Z,5.20
2022-11-18T23:06:35.163Z,5.20
2022-11-18T23:09:02.234Z,5.20
2022-11-18T23:11:47.691Z,5.10
2022-11-18T23:14:14.493Z,5.10
2022-11-18T23:16:42.617Z,5.10
2022-11-18T23:19:12.110Z,5.10
2022-11-18T23:21:39.123Z,5.10
2022-11-18T23:24:06.331Z,5.00
2022-11-18T23:26:33.198Z,5.00
2022-11-18T23:28:59.835Z,5.00
2022-11-18T23:31:27.627Z,5.00
2022-11-18T23:33:56.088Z,5.00
2022-11-18T23:36:23.851Z,5.00
2022-11-18T23:38:52.082Z,5.00
2022-11-18T23:41:19.665Z,4.90
2022-11-18T23:43:48.221Z,4.90
2022-11-18T23:46:16.350Z,4.90
2022-11-18T23:48:43.506Z,4.90
2022-11-18T23:51:11.312Z,4.90
2022-11-18T23:53:38.938Z,4.90
2022-11-18T23:56:15.064Z,4.80
2022-11-18T23:58:43.713Z,4.80
